createdAt,value
2023-07-28T00:02:15.877Z,1.10
2023-07-28T00:04:42.982Z,1.13
2023-07-28T00:07:09.876Z,1.52
2023-07-28T00:09:38.201Z,1.20
2023-07-28T00:12:05.690Z,1.33
2023-07-28T00:14:32.691Z,1.17
2023-07-28T00:16:59.779Z,1.02
2023-07-28T00:19:26.754Z,0.82
2023-07-28T00:21:53.807Z,1.17
2023-07-28T00:24:20.935Z,1.00
2023-07-28T00:26:49.230Z,0.93
2023-07-28T00:29:16.923Z,1.13
2023-07-28T00:31:43.976Z,1.20
2023-07-28T00:34:10.938Z,0.80
2023-07-28T00:36:40.549Z,1.10
2023-07-28T00:39:07.573Z,1.10
2023-07-28T00:41:34.627Z,1.20
2023-07-28T00:44:02.971Z,1.10
2023-07-28T00:46:29.980Z,1.30
2023-07-28T00:48:56.942Z,1.05
2023-07-28T00:51:24.486Z,1.10
2023-07-28T00:53:54.202Z,1.05
2023-07-28T00:56:22.144Z,1.20
2023-07-28T00:58:49.466Z,1.07
2023-07-28T01:01:35.003Z,0.93
2023-07-28T01:04:03.755Z,0.90
2023-07-28T01:09:58.226Z,1.00
2023-07-28T01:12:25.491Z,0.80
2023-07-28T01:14:52.402Z,1.10
2023-07-28T01:17:20.389Z,0.98
2023-07-28T01:20:24.365Z,1.10
2023-07-28T01:23:02.955Z,1.00
2023-07-28T01:25:34.016Z,1.40
2023-07-28T01:28:04.480Z,1.05
2023-07-28T01:30:31.904Z,0.95
2023-07-28T01:32:59.141Z,1.02
2023-07-28T01:35:27.369Z,1.00
2023-07-28T01:38:31.873Z,1.07
2023-07-28T01:40:58.982Z,1.27
2023-07-28T01:43:27.338Z,1.40
2023-07-28T01:45:54.401Z,1.10
2023-07-28T01:48:21.429Z,1.17
2023-07-28T01:51:32.818Z,1.30
2023-07-28T01:53:59.921Z,1.02
2023-07-28T01:56:26.908Z,1.30
2023-07-28T01:58:55.241Z,1.20
2023-07-28T02:01:22.280Z,1.20
2023-07-28T02:03:49.270Z,1.20
2023-07-28T02:06:16.262Z,1.17
2023-07-28T02:11:45.796Z,1.15
2023-07-28T02:14:14.161Z,1.38
2023-07-28T02:16:41.133Z,1.20
2023-07-28T02:19:09.108Z,1.35
2023-07-28T02:21:36.163Z,1.30
2023-07-28T02:24:21.793Z,0.95
2023-07-28T02:26:48.801Z,1.08
2023-07-28T02:29:19.567Z,1.10
2023-07-28T02:31:46.551Z,1.20
2023-07-28T02:34:13.506Z,1.13
2023-07-28T02:36:40.520Z,1.30
2023-07-28T02:39:07.522Z,1.40
2023-07-28T02:41:34.552Z,1.20
2023-07-28T02:44:01.461Z,1.23
2023-07-28T02:49:53.766Z,1.30
2023-07-28T02:52:20.733Z,1.20
2023-07-28T02:54:47.648Z,0.97
2023-07-28T02:57:19.356Z,1.25
2023-07-28T02:59:46.394Z,1.52
2023-07-28T03:02:13.449Z,1.30
2023-07-28T03:04:40.381Z,1.55
2023-07-28T03:07:25.772Z,1.00
2023-07-28T03:10:30.127Z,1.60
2023-07-28T03:12:58.541Z,1.23
2023-07-28T03:15:25.531Z,0.95
2023-07-28T03:17:52.664Z,1.20
2023-07-28T03:20:19.745Z,1.20
2023-07-28T03:22:46.793Z,1.23
2023-07-28T03:25:13.857Z,1.40
2023-07-28T03:27:40.782Z,1.20
2023-07-28T03:30:12.221Z,1.40
2023-07-28T03:32:39.530Z,1.30
2023-07-28T03:35:07.111Z,1.58
2023-07-28T03:37:34.118Z,1.30
2023-07-28T03:40:01.437Z,1.10
2023-07-28T03:42:28.611Z,1.30
2023-07-28T03:44:55.682Z,1.33
2023-07-28T03:47:24.053Z,1.42
2023-07-28T03:49:51.023Z,1.65
2023-07-28T03:52:18.431Z,1.40
2023-07-28T03:54:45.396Z,1.52
2023-07-28T03:57:12.422Z,1.30
2023-07-28T03:59:39.438Z,1.30
2023-07-28T04:02:06.501Z,1.30
2023-07-28T04:04:36.255Z,1.33
2023-07-28T04:07:04.413Z,1.60
2023-07-28T04:09:31.340Z,1.50
2023-07-28T04:11:58.456Z,1.55
2023-07-28T04:14:25.724Z,1.55
2023-07-28T04:16:52.723Z,1.70
2023-07-28T04:19:19.757Z,1.50
2023-07-28T04:21:48.210Z,1.40
2023-07-28T04:24:15.136Z,1.63
2023-07-28T04:26:44.060Z,1.52
2023-07-28T04:29:11.077Z,1.70
2023-07-28T04:31:38.091Z,1.30
2023-07-28T04:34:05.096Z,1.83
2023-07-28T04:36:32.202Z,1.70
2023-07-28T04:39:00.905Z,1.70
2023-07-28T04:41:27.931Z,1.67
2023-07-28T04:43:55.028Z,1.85
2023-07-28T04:46:22.095Z,1.50
2023-07-28T04:48:49.177Z,1.70
2023-07-28T04:51:16.222Z,1.73
2023-07-28T04:53:43.234Z,1.30
2023-07-28T04:56:11.649Z,1.50
2023-07-28T04:58:38.692Z,1.73
2023-07-28T05:01:06.519Z,1.70
2023-07-28T05:03:33.588Z,1.80
2023-07-28T05:06:00.600Z,1.60
2023-07-28T05:08:27.586Z,1.83
2023-07-28T05:10:54.581Z,1.63
2023-07-28T05:13:22.898Z,1.63
2023-07-28T05:15:50.059Z,2.03
2023-07-28T05:18:17.063Z,1.75
2023-07-28T05:20:44.311Z,1.88
2023-07-28T05:23:11.334Z,1.70
2023-07-28T05:25:38.274Z,1.80
2023-07-28T05:28:05.352Z,1.83
2023-07-28T05:30:33.729Z,1.55
2023-07-28T05:33:00.711Z,1.45
2023-07-28T05:35:27.794Z,1.50
2023-07-28T05:37:55.999Z,1.70
2023-07-28T05:40:23.059Z,1.58
2023-07-28T05:42:50.147Z,1.85
2023-07-28T05:45:17.197Z,1.77
2023-07-28T05:47:45.830Z,1.97
2023-07-28T05:50:12.828Z,1.40
2023-07-28T05:52:39.762Z,1.70
2023-07-28T05:55:07.395Z,1.70
2023-07-28T05:57:34.431Z,1.55
2023-07-28T06:00:01.538Z,4.33
2023-07-28T06:02:28.647Z,2.45
2023-07-28T06:04:57.222Z,1.80
2023-07-28T06:07:24.303Z,1.70
2023-07-28T06:09:51.418Z,1.70
2023-07-28T06:12:18.561Z,1.60
2023-07-28T06:14:45.599Z,1.45
2023-07-28T06:17:12.668Z,2.10
2023-07-28T06:19:39.725Z,1.75
2023-07-28T06:22:08.277Z,1.67
2023-07-28T06:24:35.258Z,1.77
2023-07-28T06:27:08.228Z,1.60
2023-07-28T06:29:35.160Z,1.73
2023-07-28T06:32:02.611Z,1.52
2023-07-28T06:34:29.658Z,2.00
2023-07-28T06:36:56.664Z,1.80
2023-07-28T06:40:11.388Z,1.88
2023-07-28T06:42:39.051Z,1.90
2023-07-28T06:45:07.298Z,2.08
2023-07-28T06:47:34.803Z,2.15
2023-07-28T06:50:02.070Z,2.10
2023-07-28T06:52:29.454Z,2.30
2023-07-28T06:54:56.825Z,2.20
2023-07-28T06:57:25.565Z,2.40
2023-07-28T06:59:52.948Z,2.55
2023-07-28T07:02:20.379Z,2.17
2023-07-28T07:04:48.031Z,2.50
2023-07-28T07:07:15.441Z,1.90
2023-07-28T07:09:42.916Z,2.00
2023-07-28T07:12:10.703Z,2.42
2023-07-28T07:14:39.920Z,2.75
2023-07-28T07:17:09.527Z,2.15
2023-07-28T07:19:37.188Z,2.07
2023-07-28T07:22:04.942Z,1.73
2023-07-28T07:24:32.279Z,2.30
2023-07-28T07:26:59.543Z,2.40
2023-07-28T07:29:26.793Z,2.20
2023-07-28T07:31:57.432Z,2.07
2023-07-28T07:34:24.997Z,1.70
2023-07-28T07:36:52.334Z,2.20
2023-07-28T07:39:19.818Z,1.67
2023-07-28T07:41:47.204Z,2.13
2023-07-28T07:44:14.531Z,1.70
2023-07-28T07:46:42.295Z,1.70
2023-07-28T07:49:13.111Z,2.13
2023-07-28T07:51:40.349Z,1.90
2023-07-28T07:54:07.818Z,2.03
2023-07-28T07:56:35.246Z,1.80
2023-07-28T07:59:02.686Z,2.08
2023-07-28T08:01:30.012Z,1.77
2023-07-28T08:03:57.387Z,2.03
2023-07-28T08:06:26.137Z,1.92
2023-07-28T08:08:55.106Z,1.90
2023-07-28T08:11:22.375Z,1.80
2023-07-28T08:13:49.832Z,2.30
2023-07-28T08:16:17.294Z,2.33
2023-07-28T08:18:44.614Z,2.08
2023-07-28T08:21:11.919Z,2.00
2023-07-28T08:23:40.663Z,2.15
2023-07-28T08:26:08.142Z,1.80
2023-07-28T08:28:35.437Z,1.88
2023-07-28T08:31:02.776Z,1.85
2023-07-28T08:33:30.052Z,1.80
2023-07-28T08:35:57.359Z,1.52
2023-07-28T08:38:24.696Z,2.05
2023-07-28T08:40:53.492Z,2.05
2023-07-28T08:43:20.789Z,2.10
2023-07-28T08:45:48.390Z,1.80
2023-07-28T08:48:16.227Z,2.25
2023-07-28T08:50:43.601Z,2.22
2023-07-28T08:53:11.203Z,2.25
2023-07-28T08:55:38.485Z,2.30
2023-07-28T08:58:18.493Z,2.07
2023-07-28T09:00:46.005Z,1.90
2023-07-28T09:03:13.321Z,1.85
2023-07-28T09:05:41.847Z,2.20
2023-07-28T09:08:09.309Z,2.10
2023-07-28T09:10:46.935Z,2.30
2023-07-28T09:13:17.510Z,1.80
2023-07-28T09:16:05.367Z,2.58
2023-07-28T09:18:33.135Z,2.30
2023-07-28T09:21:00.550Z,2.50
2023-07-28T09:23:31.938Z,2.10
2023-07-28T09:26:06.281Z,1.80
2023-07-28T09:28:40.239Z,2.65
2023-07-28T09:31:11.318Z,2.05
2023-07-28T09:33:43.915Z,1.80
2023-07-28T09:36:12.825Z,1.87
2023-07-28T09:38:43.734Z,1.90
2023-07-28T09:41:12.801Z,2.10
2023-07-28T09:43:42.338Z,2.10
2023-07-28T09:46:12.140Z,2.10
2023-07-28T09:48:42.197Z,2.30
2023-07-28T09:51:22.201Z,2.00
2023-07-28T09:53:54.172Z,1.80
2023-07-28T09:56:29.583Z,2.13
2023-07-28T09:59:05.299Z,2.53
2023-07-28T10:01:35.268Z,2.00
2023-07-28T10:04:05.343Z,2.40
2023-07-28T10:06:38.039Z,1.92
2023-07-28T10:09:07.835Z,1.60
2023-07-28T10:11:41.768Z,1.95
2023-07-28T10:14:15.410Z,2.03
2023-07-28T10:16:50.911Z,2.40
2023-07-28T10:19:21.791Z,2.10
2023-07-28T10:22:00.890Z,2.60
2023-07-28T10:24:57.671Z,2.38
2023-07-28T10:27:32.579Z,2.23
2023-07-28T10:30:06.133Z,1.73
2023-07-28T10:32:42.396Z,2.33
2023-07-28T10:35:24.595Z,2.50
2023-07-28T10:37:52.490Z,2.47
2023-07-28T10:40:29.570Z,2.47
2023-07-28T10:42:58.779Z,1.90
2023-07-28T10:45:31.316Z,2.65
2023-07-28T10:48:02.591Z,2.25
2023-07-28T10:50:32.521Z,2.35
2023-07-28T10:53:03.852Z,2.27
2023-07-28T10:55:32.032Z,1.60
2023-07-28T10:58:01.762Z,2.40
2023-07-28T11:00:30.567Z,1.98
2023-07-28T11:03:03.983Z,2.35
2023-07-28T11:05:32.036Z,2.50
2023-07-28T11:08:01.984Z,2.38
2023-07-28T11:10:31.702Z,2.75
2023-07-28T11:13:06.835Z,1.90
2023-07-28T11:15:48.534Z,2.45
2023-07-28T11:18:20.381Z,2.33
2023-07-28T11:20:52.188Z,2.33
2023-07-28T11:23:24.752Z,2.67
2023-07-28T11:25:53.571Z,2.13
2023-07-28T11:28:21.582Z,2.47
2023-07-28T11:30:49.323Z,2.30
2023-07-28T11:33:18.596Z,2.75
2023-07-28T11:35:47.755Z,3.00
2023-07-28T11:38:16.922Z,2.55
2023-07-28T11:40:46.147Z,2.88
2023-07-28T11:43:14.192Z,2.20
2023-07-28T11:45:48.036Z,2.50
2023-07-28T11:48:16.792Z,2.53
2023-07-28T11:50:47.583Z,2.15
2023-07-28T11:53:16.868Z,2.35
2023-07-28T11:55:44.638Z,2.47
2023-07-28T11:58:13.397Z,3.10
2023-07-28T12:00:44.024Z,3.30
2023-07-28T12:03:16.403Z,2.80
2023-07-28T12:08:38.621Z,3.07
2023-07-28T12:19:11.884Z,3.13
2023-07-28T12:21:40.666Z,3.37
2023-07-28T12:24:09.152Z,2.85
2023-07-28T12:26:39.672Z,3.08
2023-07-28T12:29:11.612Z,3.70
2023-07-28T12:34:10.498Z,3.67
2023-07-28T12:41:42.164Z,3.40
2023-07-28T12:44:12.984Z,3.60
2023-07-28T12:46:42.473Z,3.53
2023-07-28T12:49:21.532Z,3.50
2023-07-28T12:54:20.945Z,3.80
2023-07-28T12:56:48.453Z,3.92
2023-07-28T13:01:47.156Z,3.58
2023-07-28T13:04:14.551Z,3.45
2023-07-28T13:06:42.400Z,2.63
2023-07-28T13:14:11.653Z,2.75
2023-07-28T13:16:39.374Z,2.45
2023-07-28T13:19:06.938Z,2.75
2023-07-28T13:21:34.874Z,2.67
2023-07-28T13:24:02.354Z,2.53
2023-07-28T13:26:29.644Z,2.60
2023-07-28T13:29:00.030Z,2.80
2023-07-28T13:31:27.412Z,3.35
2023-07-28T13:33:55.742Z,2.10
2023-07-28T13:36:24.725Z,2.00
2023-07-28T13:38:52.183Z,2.45
2023-07-28T13:41:19.512Z,2.40
2023-07-28T13:43:46.807Z,1.95
2023-07-28T13:46:15.552Z,1.83
2023-07-28T13:48:52.766Z,2.13
2023-07-28T13:51:25.997Z,2.20
2023-07-28T13:56:29.359Z,2.10
2023-07-28T13:58:56.661Z,2.13
2023-07-28T14:01:25.469Z,1.67
2023-07-28T14:03:52.948Z,1.70
2023-07-28T14:06:20.753Z,2.00
2023-07-28T14:08:47.994Z,2.35
2023-07-28T14:11:15.326Z,1.90
2023-07-28T14:13:42.582Z,2.07
2023-07-28T14:16:11.277Z,2.05
2023-07-28T14:18:41.647Z,2.25
2023-07-28T14:21:09.581Z,2.17
2023-07-28T14:23:37.108Z,2.42
2023-07-28T14:26:04.501Z,2.10
2023-07-28T14:28:31.936Z,2.03
2023-07-28T14:30:59.278Z,2.08
2023-07-28T14:33:26.739Z,2.25
2023-07-28T14:35:55.462Z,2.45
2023-07-28T14:38:22.759Z,2.30
2023-07-28T14:40:53.230Z,2.50
2023-07-28T14:43:20.722Z,2.60
2023-07-28T14:45:50.674Z,2.25
2023-07-28T14:48:18.130Z,2.20
2023-07-28T14:50:45.427Z,2.00
2023-07-28T14:53:34.123Z,2.60
2023-07-28T14:56:02.237Z,2.35
2023-07-28T14:58:30.207Z,2.28
2023-07-28T15:00:57.748Z,2.20
2023-07-28T15:03:27.919Z,1.80
2023-07-28T15:05:56.358Z,2.22
2023-07-28T15:08:24.028Z,2.22
2023-07-28T15:10:52.758Z,2.70
2023-07-28T15:13:20.281Z,2.65
2023-07-28T15:15:48.027Z,2.60
2023-07-28T15:18:24.366Z,2.33
2023-07-28T15:20:51.750Z,2.42
2023-07-28T15:23:19.143Z,2.50
2023-07-28T15:25:48.118Z,2.40
2023-07-28T15:28:17.056Z,2.53
2023-07-28T15:30:47.640Z,2.70
2023-07-28T15:33:16.297Z,2.47
2023-07-28T15:35:43.583Z,2.85
2023-07-28T15:38:10.947Z,3.00
2023-07-28T15:40:38.224Z,2.63
2023-07-28T15:43:05.544Z,2.90
2023-07-28T15:45:34.787Z,2.80
2023-07-28T15:48:02.280Z,2.90
2023-07-28T15:50:29.820Z,2.88
2023-07-28T15:52:57.396Z,2.30
2023-07-28T15:55:24.774Z,2.70
2023-07-28T15:57:52.050Z,3.10
2023-07-28T16:00:19.499Z,2.88
2023-07-28T16:02:48.314Z,2.47
2023-07-28T16:05:15.676Z,2.80
2023-07-28T16:07:43.002Z,2.67
2023-07-28T16:10:11.211Z,2.50
2023-07-28T16:12:38.775Z,2.70
2023-07-28T16:15:07.028Z,2.53
2023-07-28T16:17:34.420Z,2.67
2023-07-28T16:20:03.462Z,2.30
2023-07-28T16:22:30.755Z,2.78
2023-07-28T16:24:58.377Z,2.08
2023-07-28T16:27:25.586Z,3.03
2023-07-28T16:29:52.972Z,2.33
2023-07-28T16:32:20.351Z,2.40
2023-07-28T16:34:47.801Z,2.58
2023-07-28T16:37:17.577Z,2.40
2023-07-28T16:39:44.855Z,2.40
2023-07-28T16:42:12.104Z,2.47
2023-07-28T16:44:40.100Z,2.40
2023-07-28T16:47:07.914Z,2.65
2023-07-28T16:49:35.345Z,2.70
2023-07-28T16:52:02.950Z,2.70
2023-07-28T16:54:32.035Z,2.27
2023-07-28T16:56:59.824Z,2.63
2023-07-28T16:59:27.175Z,2.75
2023-07-28T17:01:54.586Z,2.63
2023-07-28T17:04:21.912Z,2.50
2023-07-28T17:06:49.387Z,2.33
2023-07-28T17:09:16.823Z,2.50
2023-07-28T17:11:45.616Z,2.63
2023-07-28T17:14:13.152Z,2.50
2023-07-28T17:16:40.558Z,2.40
2023-07-28T17:19:07.944Z,2.10
2023-07-28T17:21:35.630Z,3.25
2023-07-28T17:24:03.141Z,3.50
2023-07-28T17:26:30.500Z,2.63
2023-07-28T17:28:59.383Z,3.20
2023-07-28T17:31:26.698Z,3.20
2023-07-28T17:33:53.975Z,3.47
2023-07-28T17:36:21.329Z,2.88
2023-07-28T17:38:48.628Z,2.67
2023-07-28T17:41:16.089Z,2.78
2023-07-28T17:43:44.439Z,2.20
2023-07-28T17:46:13.284Z,2.55
2023-07-28T17:48:40.597Z,2.50
2023-07-28T17:51:07.907Z,2.45
2023-07-28T17:53:35.206Z,2.70
2023-07-28T17:56:02.562Z,2.40
2023-07-28T17:58:29.892Z,2.42
2023-07-28T18:00:57.478Z,3.10
2023-07-28T18:03:27.067Z,2.53
2023-07-28T18:05:55.005Z,2.65
2023-07-28T18:08:22.278Z,2.20
2023-07-28T18:10:49.556Z,2.42
2023-07-28T18:13:17.026Z,2.92
2023-07-28T18:15:44.606Z,2.65
2023-07-28T18:18:12.039Z,2.47
2023-07-28T18:20:40.814Z,2.20
2023-07-28T18:23:08.104Z,2.17
2023-07-28T18:25:35.784Z,2.40
2023-07-28T18:28:03.814Z,2.67
2023-07-28T18:30:31.554Z,1.83
2023-07-28T18:32:58.934Z,2.23
2023-07-28T18:35:26.432Z,2.20
2023-07-28T18:37:55.173Z,1.92
2023-07-28T18:40:22.583Z,2.20
2023-07-28T18:42:49.869Z,2.50
2023-07-28T18:45:17.406Z,2.20
2023-07-28T18:47:44.869Z,2.10
2023-07-28T18:50:12.491Z,1.77
2023-07-28T18:52:40.630Z,1.90
2023-07-28T18:55:10.162Z,2.30
2023-07-28T18:57:37.457Z,1.83
2023-07-28T19:00:08.170Z,1.75
2023-07-28T19:02:35.527Z,2.40
2023-07-28T19:05:03.005Z,2.00
2023-07-28T19:07:30.302Z,2.22
2023-07-28T19:09:57.634Z,2.27
2023-07-28T19:12:26.423Z,2.20
2023-07-28T19:14:53.655Z,2.20
2023-07-28T19:17:22.255Z,2.30
2023-07-28T19:19:49.714Z,2.88
2023-07-28T19:22:17.060Z,2.10
2023-07-28T19:24:44.332Z,1.90
2023-07-28T19:27:11.644Z,2.20
2023-07-28T19:29:40.412Z,2.00
2023-07-28T19:32:08.307Z,1.95
2023-07-28T19:34:36.012Z,1.90
2023-07-28T19:37:03.273Z,2.20
2023-07-28T19:39:30.598Z,1.90
2023-07-28T19:41:57.924Z,2.00
2023-07-28T19:44:36.386Z,1.73
2023-07-28T19:47:10.133Z,1.93
2023-07-28T19:49:37.418Z,1.67
2023-07-28T19:52:05.935Z,1.98
2023-07-28T19:54:35.401Z,1.80
2023-07-28T19:57:03.130Z,2.03
2023-07-28T19:59:30.401Z,1.90
2023-07-28T20:01:57.715Z,1.83
2023-07-28T20:04:27.494Z,1.88
2023-07-28T20:06:54.980Z,1.83
2023-07-28T20:09:28.166Z,2.20
2023-07-28T20:11:55.347Z,1.87
2023-07-28T20:14:22.665Z,2.17
2023-07-28T20:16:50.089Z,1.88
2023-07-28T20:19:17.454Z,1.95
2023-07-28T20:21:46.644Z,2.03
2023-07-28T20:24:13.854Z,2.20
2023-07-28T20:26:41.318Z,1.92
2023-07-28T20:29:08.981Z,1.90
2023-07-28T20:31:36.262Z,1.75
2023-07-28T20:34:03.476Z,2.15
2023-07-28T20:36:30.939Z,2.10
2023-07-28T20:38:59.664Z,1.63
2023-07-28T20:41:26.913Z,2.13
2023-07-28T20:43:55.239Z,2.10
2023-07-28T20:46:22.706Z,2.00
2023-07-28T20:48:49.914Z,1.80
2023-07-28T20:51:17.070Z,1.67
2023-07-28T20:53:44.358Z,2.17
2023-07-28T20:56:13.561Z,1.77
2023-07-28T20:58:42.211Z,2.00
2023-07-28T21:01:09.864Z,1.93
2023-07-28T21:03:37.275Z,1.90
2023-07-28T21:06:04.568Z,2.22
2023-07-28T21:08:31.853Z,2.00
2023-07-28T21:10:59.882Z,1.90
2023-07-28T21:13:28.452Z,1.97
2023-07-28T21:15:55.780Z,2.17
2023-07-28T21:18:23.859Z,2.00
2023-07-28T21:20:51.059Z,2.33
2023-07-28T21:23:18.278Z,2.05
2023-07-28T21:25:45.742Z,1.60
2023-07-28T21:28:13.142Z,2.10
2023-07-28T21:30:43.923Z,2.28
2023-07-28T21:33:11.183Z,2.30
2023-07-28T21:35:38.382Z,2.95
2023-07-28T21:38:05.760Z,2.00
2023-07-28T21:40:33.123Z,2.58
2023-07-28T21:43:00.410Z,2.38
2023-07-28T21:45:27.626Z,2.20
2023-07-28T21:47:56.268Z,2.22
2023-07-28T21:50:23.557Z,1.80
2023-07-28T21:52:50.800Z,1.90
2023-07-28T21:55:18.138Z,1.70
2023-07-28T21:57:47.317Z,2.30
2023-07-28T22:00:15.556Z,2.15
2023-07-28T22:02:43.068Z,2.23
2023-07-28T22:05:13.077Z,2.15
2023-07-28T22:07:40.535Z,2.00
2023-07-28T22:10:08.832Z,2.00
2023-07-28T22:12:36.127Z,2.30
2023-07-28T22:15:03.665Z,2.30
2023-07-28T22:17:31.077Z,2.03
2023-07-28T22:19:58.719Z,3.30
2023-07-28T22:22:27.440Z,3.08
2023-07-28T22:24:54.626Z,2.70
2023-07-28T22:27:21.966Z,2.20
2023-07-28T22:29:52.073Z,2.75
2023-07-28T22:32:19.344Z,2.55
2023-07-28T22:34:46.539Z,3.00
2023-07-28T22:37:13.811Z,2.35
2023-07-28T22:39:42.512Z,2.33
2023-07-28T22:42:10.007Z,2.20
2023-07-28T22:44:37.252Z,2.00
2023-07-28T22:47:04.826Z,2.30
2023-07-28T22:49:32.050Z,2.20
2023-07-28T22:51:59.229Z,2.17
2023-07-28T22:54:26.402Z,2.38
2023-07-28T22:56:54.933Z,2.88
2023-07-28T22:59:22.177Z,2.45
2023-07-28T23:01:49.392Z,2.47
2023-07-28T23:04:16.704Z,2.03
2023-07-28T23:06:43.955Z,2.20
2023-07-28T23:09:11.678Z,2.42
2023-07-28T23:11:38.939Z,2.33
2023-07-28T23:14:07.686Z,2.50
2023-07-28T23:16:35.253Z,2.00
2023-07-28T23:19:02.696Z,2.05
2023-07-28T23:21:29.927Z,2.35
2023-07-28T23:23:57.577Z,2.45
2023-07-28T23:26:25.230Z,2.50
2023-07-28T23:28:52.448Z,2.40
2023-07-28T23:31:21.107Z,2.50
2023-07-28T23:33:48.370Z,2.30
2023-07-28T23:36:15.717Z,2.20
2023-07-28T23:38:42.906Z,2.83
2023-07-28T23:41:10.252Z,2.10
2023-07-28T23:43:37.500Z,2.20
2023-07-28T23:46:04.802Z,2.08
2023-07-28T23:48:33.534Z,2.25
2023-07-28T23:51:01.259Z,2.65
2023-07-28T23:53:29.464Z,2.70
2023-07-28T23:55:56.815Z,2.30
2023-07-28T23:58:24.190Z,2.55
